Urmston, United Kingdom
Current Conditions -  °F | °C
As of 6:50 PM on Thursday 30 Oct 2014 (Local Time) from EGCC Reporting Station
Scattered Clouds Scattered Clouds  
Wind Chill: 61°   Ceiling: Unl
Heat Index: 61°   Visibility: 6mi
Dew Point: 57°   Wind: 10mph
Humidity: 88%   Direction: 170°S
Pressure: 29.97"   Gusts: NA
Location:  53.45°N, 2.35°W
Report Text: EGCC 301850Z 17009KT 9999 FEW033 SCT041 16/14 Q1015
Loading
Personal Weather Stations






























Interactive Weather Map
Tropical Storm Tracking
New forecast layout! Learn more

10-Day Weather Forecast

Advertisements
Track Severe Weather on mobile